createdAt,value
2022-10-17T00:00:36.516Z,94.11
2022-10-17T00:01:36.574Z,94.51
2022-10-17T00:02:36.517Z,92.74
2022-10-17T00:03:36.485Z,91.32
2022-10-17T00:04:36.480Z,89.61
2022-10-17T00:05:36.458Z,88.29
2022-10-17T00:06:36.447Z,88.09
2022-10-17T00:07:36.438Z,86.98
2022-10-17T00:08:36.446Z,87.58
2022-10-17T00:09:36.415Z,87.18
2022-10-17T00:10:36.406Z,87.18
2022-10-17T00:11:36.395Z,89.36
2022-10-17T00:12:36.385Z,89.91
2022-10-17T00:13:36.404Z,90.88
2022-10-17T00:14:36.357Z,91.32
2022-10-17T00:15:36.375Z,92.44
2022-10-17T00:16:36.337Z,92.44
2022-10-17T00:17:36.327Z,93.15
2022-10-17T00:18:36.328Z,92.64
2022-10-17T00:19:36.327Z,92.28
2022-10-17T00:20:36.299Z,91.77
2022-10-17T00:21:36.287Z,90.76
2022-10-17T00:23:36.258Z,90.86
2022-10-17T00:24:36.258Z,90.56
2022-10-17T00:25:36.259Z,91.16
2022-10-17T00:26:36.228Z,92.28
2022-10-17T00:27:36.219Z,92.28
2022-10-17T00:28:36.278Z,92.38
2022-10-17T00:29:36.188Z,92.58
2022-10-17T00:30:36.178Z,92.68
2022-10-17T00:31:36.189Z,92.99
2022-10-17T00:32:36.159Z,92.88
2022-10-17T00:33:36.150Z,93.39
2022-10-17T00:34:36.138Z,93.59
2022-10-17T00:35:36.119Z,93.23
2022-10-17T00:36:36.119Z,91.71
2022-10-17T00:37:36.117Z,90.86
2022-10-17T00:38:36.089Z,90.76
2022-10-17T00:39:36.086Z,91.06
2022-10-17T00:40:36.068Z,90.86
2022-10-17T00:41:36.057Z,90.96
2022-10-17T00:42:36.069Z,91.27
2022-10-17T00:43:36.029Z,91.67
2022-10-17T00:44:36.019Z,92.18
2022-10-17T00:45:36.009Z,92.08
2022-10-17T00:46:35.999Z,91.87
2022-10-17T00:47:35.988Z,92.08
2022-10-17T00:48:35.999Z,92.68
2022-10-17T00:49:35.961Z,92.68
2022-10-17T00:50:35.959Z,93.03
2022-10-17T00:51:35.950Z,93.13
2022-10-17T00:52:35.938Z,92.93
2022-10-17T00:53:35.919Z,91.51
2022-10-17T00:54:35.930Z,91.00
2022-10-17T00:55:35.898Z,91.20
2022-10-17T00:56:35.889Z,91.92
2022-10-17T00:57:35.879Z,91.41
2022-10-17T00:58:35.868Z,90.60
2022-10-17T00:59:35.873Z,90.20
2022-10-17T01:00:35.839Z,89.28
2022-10-17T01:01:35.858Z,88.57
2022-10-17T01:02:35.820Z,86.51
2022-10-17T01:03:35.808Z,87.62
2022-10-17T01:04:35.803Z,87.22
2022-10-17T01:05:35.816Z,86.51
2022-10-17T01:06:35.780Z,87.05
2022-10-17T01:07:37.272Z,85.94
2022-10-17T01:08:35.760Z,85.24
2022-10-17T01:09:35.738Z,84.02
2022-10-17T01:10:35.751Z,83.27
2022-10-17T01:11:35.720Z,83.07
2022-10-17T01:12:35.710Z,80.34
2022-10-17T01:13:35.697Z,79.83
2022-10-17T01:14:35.690Z,80.64
2022-10-17T01:15:35.672Z,80.50
2022-10-17T01:16:35.692Z,80.20
2022-10-17T01:17:35.651Z,80.91
2022-10-17T01:18:35.641Z,82.02
2022-10-17T01:19:35.630Z,81.51
2022-10-17T01:20:35.621Z,81.88
2022-10-17T01:21:35.610Z,83.03
2022-10-17T01:22:35.621Z,82.62
2022-10-17T01:23:35.581Z,82.32
2022-10-17T01:24:35.571Z,82.99
2022-10-17T01:25:35.563Z,84.91
2022-10-17T01:26:35.560Z,85.68
2022-10-17T01:27:35.565Z,86.69
2022-10-17T01:28:35.619Z,87.90
2022-10-17T01:29:35.512Z,88.41
2022-10-17T01:30:35.510Z,88.92
2022-10-17T01:31:35.491Z,89.83
2022-10-17T01:32:35.490Z,90.67
2022-10-17T01:33:35.492Z,89.46
2022-10-17T01:34:35.462Z,90.88
2022-10-17T01:35:35.443Z,89.46
2022-10-17T01:36:35.441Z,89.16
2022-10-17T01:37:35.432Z,89.56
2022-10-17T01:38:35.421Z,88.96
2022-10-17T01:39:36.978Z,89.06
2022-10-17T01:40:35.393Z,89.46
2022-10-17T01:41:35.382Z,90.58
2022-10-17T01:42:35.373Z,89.97
2022-10-17T01:43:35.352Z,90.07
2022-10-17T01:44:35.354Z,90.83
2022-10-17T01:45:35.358Z,91.78
2022-10-17T01:46:35.333Z,91.18
2022-10-17T01:47:35.315Z,90.88
2022-10-17T01:48:35.304Z,91.89
2022-10-17T01:49:35.291Z,92.19
2022-10-17T01:50:35.283Z,92.69
2022-10-17T01:51:35.282Z,92.19
2022-10-17T01:52:35.328Z,92.19
2022-10-17T01:53:35.245Z,92.33
2022-10-17T01:54:35.241Z,92.84
2022-10-17T01:55:35.223Z,92.84
2022-10-17T01:56:35.234Z,93.55
2022-10-17T01:57:35.221Z,93.85
2022-10-17T01:58:35.193Z,93.19
2022-10-17T01:59:35.174Z,94.20
2022-10-17T02:00:35.175Z,93.59
2022-10-17T02:01:35.210Z,94.10
2022-10-17T02:02:35.251Z,93.19
2022-10-17T02:03:35.135Z,93.90
2022-10-17T02:04:35.128Z,92.93
2022-10-17T02:05:35.116Z,92.42
2022-10-17T02:06:35.104Z,92.72
2022-10-17T02:07:35.084Z,93.03
2022-10-17T02:08:35.094Z,92.32
2022-10-17T02:09:35.067Z,90.91
2022-10-17T02:10:35.055Z,90.50
2022-10-17T02:11:35.045Z,90.91
2022-10-17T02:12:35.036Z,90.56
2022-10-17T02:13:35.045Z,91.41
2022-10-17T02:14:35.015Z,90.70
2022-10-17T02:15:35.006Z,90.20
2022-10-17T02:16:34.986Z,89.39
2022-10-17T02:17:35.044Z,88.27
2022-10-17T02:18:34.965Z,88.07
2022-10-17T02:19:34.973Z,87.97
2022-10-17T02:20:34.954Z,88.88
2022-10-17T02:21:34.939Z,90.09
2022-10-17T02:22:34.925Z,89.28
2022-10-17T02:23:34.908Z,90.09
2022-10-17T02:24:34.895Z,90.20
2022-10-17T02:25:34.908Z,90.80
2022-10-17T02:26:34.877Z,91.41
2022-10-17T02:27:34.864Z,89.18
2022-10-17T02:28:35.028Z,90.30
2022-10-17T02:29:34.837Z,91.20
2022-10-17T02:30:34.834Z,91.82
2022-10-17T02:31:34.834Z,92.52
2022-10-17T02:32:34.870Z,92.63
2022-10-17T02:33:34.796Z,91.51
2022-10-17T02:34:34.786Z,91.41
2022-10-17T02:35:34.776Z,91.82
2022-10-17T02:36:34.787Z,91.00
2022-10-17T02:37:34.756Z,90.84
2022-10-17T02:38:34.751Z,90.64
2022-10-17T02:39:34.736Z,91.66
2022-10-17T02:40:34.726Z,91.35
2022-10-17T02:41:34.766Z,91.55
2022-10-17T02:42:34.746Z,91.55
2022-10-17T02:43:34.686Z,91.55
2022-10-17T02:44:34.677Z,91.96
2022-10-17T02:45:34.659Z,92.41
2022-10-17T02:46:34.655Z,93.02
2022-10-17T02:47:34.645Z,91.50
2022-10-17T02:48:34.675Z,91.60
2022-10-17T02:49:34.619Z,90.89
2022-10-17T02:50:34.627Z,91.19
2022-10-17T02:51:34.600Z,90.18
2022-10-17T02:52:34.587Z,89.47
2022-10-17T02:53:34.587Z,89.17
2022-10-17T02:54:34.585Z,87.85
2022-10-17T02:55:34.558Z,88.11
2022-10-17T02:56:34.537Z,87.81
2022-10-17T02:57:34.528Z,88.31
2022-10-17T02:58:34.525Z,88.62
2022-10-17T03:00:34.526Z,89.94
2022-10-17T03:01:34.500Z,89.83
2022-10-17T03:02:34.477Z,89.83
2022-10-17T03:03:34.458Z,89.43
2022-10-17T03:04:34.450Z,90.34
2022-10-17T03:05:34.438Z,89.02
2022-10-17T03:06:34.451Z,90.08
2022-10-17T03:07:34.417Z,89.37
2022-10-17T03:08:34.465Z,88.35
2022-10-17T03:09:34.388Z,87.85
2022-10-17T03:10:34.388Z,87.14
2022-10-17T03:11:34.367Z,86.94
2022-10-17T03:12:34.379Z,86.63
2022-10-17T03:13:36.321Z,87.04
2022-10-17T03:14:35.338Z,87.04
2022-10-17T03:15:34.326Z,88.05
2022-10-17T03:16:34.318Z,87.95
2022-10-17T03:17:34.348Z,87.74
2022-10-17T03:18:34.319Z,87.45
2022-10-17T03:19:34.279Z,87.24
2022-10-17T03:20:34.269Z,87.95
2022-10-17T03:21:34.259Z,88.35
2022-10-17T03:22:34.248Z,87.74
2022-10-17T03:23:34.238Z,87.14
2022-10-17T03:24:34.239Z,86.53
2022-10-17T03:25:34.219Z,86.94
2022-10-17T03:26:34.232Z,85.62
2022-10-17T03:27:34.190Z,85.62
2022-10-17T03:28:34.253Z,86.22
2022-10-17T03:29:34.189Z,86.13
2022-10-17T03:30:34.160Z,84.91
2022-10-17T03:31:34.148Z,85.76
2022-10-17T03:32:34.139Z,85.31
2022-10-17T03:33:34.119Z,85.11
2022-10-17T03:34:34.118Z,84.85
2022-10-17T03:35:34.121Z,84.85
2022-10-17T03:36:34.633Z,85.36
2022-10-17T03:37:34.079Z,84.64
2022-10-17T03:38:34.070Z,84.64
2022-10-17T03:39:34.059Z,84.64
2022-10-17T03:40:34.049Z,84.34
2022-10-17T03:41:34.059Z,84.85
2022-10-17T03:42:34.028Z,84.55
2022-10-17T03:43:34.010Z,85.15
2022-10-17T03:44:34.001Z,84.64
2022-10-17T03:45:33.991Z,85.36
2022-10-17T03:46:33.972Z,85.21
2022-10-17T03:47:33.979Z,87.04
2022-10-17T03:48:33.949Z,86.47
2022-10-17T03:49:33.948Z,86.47
2022-10-17T03:50:33.929Z,85.86
2022-10-17T03:51:33.919Z,85.86
2022-10-17T03:52:33.920Z,84.85
2022-10-17T03:53:33.899Z,85.66
2022-10-17T03:54:33.891Z,84.04
2022-10-17T03:55:33.884Z,84.44
2022-10-17T03:56:33.860Z,83.94
2022-10-17T03:57:33.852Z,84.24
2022-10-17T03:58:40.910Z,85.56
2022-10-17T03:59:33.830Z,86.16
2022-10-17T04:00:33.830Z,84.95
2022-10-17T04:01:33.894Z,85.56
2022-10-17T04:02:33.800Z,85.15
2022-10-17T04:03:33.790Z,86.47
2022-10-17T04:04:33.790Z,86.37
2022-10-17T04:05:33.768Z,85.05
2022-10-17T04:06:33.751Z,86.16
2022-10-17T04:07:33.747Z,86.16
2022-10-17T04:08:33.742Z,84.44
2022-10-17T04:09:33.719Z,85.76
2022-10-17T04:10:33.721Z,85.46
2022-10-17T04:11:33.700Z,86.16
2022-10-17T04:12:33.682Z,84.75
2022-10-17T04:13:33.670Z,84.34
2022-10-17T04:14:33.660Z,84.75
2022-10-17T04:15:33.650Z,84.44
2022-10-17T04:16:33.657Z,84.95
2022-10-17T04:17:37.212Z,85.46
2022-10-17T04:18:33.615Z,85.96
2022-10-17T04:19:33.611Z,85.86
2022-10-17T04:20:33.592Z,86.16
2022-10-17T04:21:33.602Z,84.95
2022-10-17T04:22:33.570Z,85.05
2022-10-17T04:23:33.563Z,86.16
2022-10-17T04:24:33.542Z,86.47
2022-10-17T04:25:36.080Z,86.88
2022-10-17T04:26:33.521Z,86.88
2022-10-17T04:27:33.541Z,86.98
2022-10-17T04:28:33.616Z,87.99
2022-10-17T04:29:33.491Z,88.29
2022-10-17T04:30:33.479Z,87.79
2022-10-17T04:31:33.471Z,88.29
2022-10-17T04:32:33.460Z,88.09
2022-10-17T04:33:33.470Z,87.18
2022-10-17T04:34:33.432Z,87.99
2022-10-17T04:35:33.432Z,87.79
2022-10-17T04:36:33.412Z,87.79
2022-10-17T04:37:33.412Z,87.48
2022-10-17T04:38:33.391Z,87.89
2022-10-17T04:39:33.412Z,87.89
2022-10-17T04:40:33.362Z,88.29
2022-10-17T04:41:33.361Z,88.49
2022-10-17T04:42:33.342Z,88.49
2022-10-17T04:43:33.333Z,88.40
2022-10-17T04:44:33.324Z,88.60
2022-10-17T04:45:33.330Z,87.79
2022-10-17T04:46:33.292Z,87.38
2022-10-17T04:47:33.293Z,87.14
2022-10-17T04:48:33.274Z,87.95
2022-10-17T04:49:33.286Z,89.17
2022-10-17T04:50:33.324Z,89.06
2022-10-17T04:51:33.243Z,89.37
2022-10-17T04:52:33.231Z,89.87
2022-10-17T04:53:33.222Z,89.98
2022-10-17T04:54:33.271Z,90.48
2022-10-17T04:55:33.201Z,90.99
2022-10-17T04:56:33.211Z,91.09
2022-10-17T04:57:33.174Z,91.60
2022-10-17T04:58:33.163Z,91.39
2022-10-17T04:59:33.153Z,92.61
2022-10-17T05:00:33.238Z,93.06
2022-10-17T05:01:33.132Z,92.35
2022-10-17T05:02:33.133Z,92.25
2022-10-17T05:03:33.114Z,92.55
2022-10-17T05:04:33.093Z,92.96
2022-10-17T05:05:33.092Z,92.25
2022-10-17T05:06:33.073Z,90.77
2022-10-17T05:07:33.084Z,90.22
2022-10-17T05:08:33.052Z,89.72
2022-10-17T05:09:33.044Z,89.92
2022-10-17T05:10:33.032Z,89.31
2022-10-17T05:11:33.026Z,89.41
2022-10-17T05:12:33.004Z,88.29
2022-10-17T05:13:33.014Z,87.59
2022-10-17T05:14:32.983Z,89.06
2022-10-17T05:15:32.994Z,89.67
2022-10-17T05:16:32.963Z,91.44
2022-10-17T05:17:32.954Z,92.14
2022-10-17T05:18:32.957Z,92.55
2022-10-17T05:19:32.934Z,91.78
2022-10-17T05:20:32.915Z,90.36
2022-10-17T05:22:32.958Z,87.43
2022-10-17T05:23:32.887Z,87.38
2022-10-17T05:24:32.893Z,87.79
2022-10-17T05:25:32.866Z,88.40
2022-10-17T05:26:32.845Z,87.48
2022-10-17T05:27:32.848Z,85.15
2022-10-17T05:28:32.921Z,82.72
2022-10-17T05:29:32.824Z,82.98
2022-10-17T05:30:35.288Z,84.10
2022-10-17T05:31:32.795Z,83.29
2022-10-17T05:32:32.864Z,82.17
2022-10-17T05:33:32.775Z,85.38
2022-10-17T05:34:32.762Z,85.07
2022-10-17T05:35:32.774Z,84.67
2022-10-17T05:36:32.737Z,84.16
2022-10-17T05:37:32.737Z,86.35
2022-10-17T05:38:32.716Z,88.57
2022-10-17T05:39:32.704Z,88.78
2022-10-17T05:40:32.701Z,88.68
2022-10-17T05:41:32.726Z,88.37
2022-10-17T05:42:33.025Z,85.84
2022-10-17T05:43:32.675Z,85.54
2022-10-17T05:44:32.646Z,86.55
2022-10-17T05:45:32.655Z,86.65
2022-10-17T05:46:32.626Z,86.15
2022-10-17T05:47:33.007Z,87.66
2022-10-17T05:48:32.604Z,87.77
2022-10-17T05:49:44.725Z,88.37
2022-10-17T05:50:33.577Z,88.68
2022-10-17T05:51:32.728Z,88.48
2022-10-17T05:52:32.924Z,89.18
2022-10-17T05:53:32.585Z,89.08
2022-10-17T05:54:32.536Z,89.65
2022-10-17T05:55:32.526Z,90.25
2022-10-17T05:56:32.514Z,90.25
2022-10-17T05:57:32.506Z,90.56
2022-10-17T05:58:48.845Z,91.37
2022-10-17T05:59:33.505Z,90.56
2022-10-17T06:00:32.501Z,90.66
2022-10-17T06:01:32.510Z,91.27
2022-10-17T06:02:33.102Z,90.80
2022-10-17T06:03:32.437Z,90.80
2022-10-17T06:04:32.426Z,89.79
2022-10-17T06:05:32.438Z,89.39
2022-10-17T06:06:32.404Z,88.27
2022-10-17T06:07:32.396Z,88.17
2022-10-17T06:08:32.376Z,89.18
2022-10-17T06:09:32.424Z,90.09
2022-10-17T06:10:32.357Z,89.89
2022-10-17T06:11:32.365Z,89.79
2022-10-17T06:12:32.418Z,91.00
2022-10-17T06:13:32.325Z,92.22
2022-10-17T06:14:32.318Z,92.52
2022-10-17T06:15:32.306Z,92.12
2022-10-17T06:16:32.336Z,92.12
2022-10-17T06:17:32.276Z,91.61
2022-10-17T06:18:32.266Z,91.00
2022-10-17T06:19:32.257Z,91.82
2022-10-17T06:20:32.248Z,92.22
2022-10-17T06:21:32.237Z,91.61
2022-10-17T06:22:32.449Z,90.60
2022-10-17T06:23:32.217Z,92.12
2022-10-17T06:24:32.198Z,89.99
2022-10-17T06:25:32.187Z,91.16
2022-10-17T06:26:32.177Z,91.87
2022-10-17T06:27:32.174Z,93.39
2022-10-17T06:28:32.205Z,93.95
2022-10-17T06:29:32.147Z,93.95
2022-10-17T06:30:32.128Z,94.46
2022-10-17T06:31:32.127Z,95.02
2022-10-17T06:32:32.250Z,95.43
2022-10-17T06:33:32.127Z,95.89
2022-10-17T06:34:32.087Z,96.34
2022-10-17T06:35:32.077Z,96.45
2022-10-17T06:36:32.067Z,96.70
2022-10-17T06:37:35.318Z,97.02
2022-10-17T06:38:32.039Z,96.67
2022-10-17T06:39:32.048Z,97.99
2022-10-17T06:40:32.020Z,98.34
2022-10-17T06:41:32.008Z,98.30
2022-10-17T06:42:31.996Z,97.75
2022-10-17T06:43:31.997Z,97.20
2022-10-17T06:44:32.065Z,96.39
2022-10-17T06:45:31.967Z,96.44
2022-10-17T06:46:31.950Z,96.48
2022-10-17T06:47:32.311Z,96.64
2022-10-17T06:48:31.929Z,96.24
2022-10-17T06:49:31.919Z,95.94
2022-10-17T06:50:31.940Z,95.54
2022-10-17T06:51:31.899Z,94.54
2022-10-17T06:52:31.881Z,93.84
2022-10-17T06:53:31.878Z,94.18
2022-10-17T06:54:31.860Z,94.20
2022-10-17T06:55:31.849Z,93.04
2022-10-17T06:56:31.862Z,91.69
2022-10-17T06:57:32.140Z,89.49
2022-10-17T06:58:31.818Z,89.59
2022-10-17T06:59:31.808Z,90.13
2022-10-17T07:00:31.822Z,91.03
2022-10-17T07:01:31.784Z,91.14
2022-10-17T07:02:32.090Z,89.99
2022-10-17T07:03:31.760Z,89.29
2022-10-17T07:04:31.750Z,89.14
2022-10-17T07:05:31.739Z,88.00
2022-10-17T07:06:31.730Z,86.40
2022-10-17T07:07:31.975Z,86.05
2022-10-17T07:08:31.722Z,85.27
2022-10-17T07:09:31.692Z,81.57
2022-10-17T07:10:31.679Z,81.93
2022-10-17T07:11:31.671Z,79.59
2022-10-17T07:12:31.662Z,79.46
2022-10-17T07:13:34.458Z,78.52
2022-10-17T07:14:32.660Z,77.22
2022-10-17T07:15:31.634Z,75.28
2022-10-17T07:16:31.616Z,75.98
2022-10-17T07:17:31.804Z,74.45
2022-10-17T07:18:31.593Z,73.55
2022-10-17T07:19:31.584Z,74.02
2022-10-17T07:20:31.622Z,72.12
2022-10-17T07:21:35.201Z,72.38
2022-10-17T07:22:32.543Z,70.65
2022-10-17T07:23:31.545Z,70.59
2022-10-17T07:24:31.527Z,68.50
2022-10-17T07:25:32.517Z,69.26
2022-10-17T07:26:31.535Z,69.76
2022-10-17T07:27:31.887Z,69.56
2022-10-17T07:28:31.507Z,70.62
2022-10-17T07:29:31.473Z,72.09
2022-10-17T07:30:31.455Z,73.35
2022-10-17T07:31:31.446Z,73.02
2022-10-17T07:32:31.454Z,71.72
2022-10-17T07:33:31.429Z,71.19
2022-10-17T07:34:31.407Z,71.75
2022-10-17T07:35:31.404Z,69.82
2022-10-17T07:36:31.386Z,70.29
2022-10-17T07:37:31.770Z,69.96
2022-10-17T07:38:31.386Z,68.16
2022-10-17T07:39:31.358Z,68.10
2022-10-17T07:40:31.347Z,68.37
2022-10-17T07:41:31.335Z,67.74
2022-10-17T07:42:31.357Z,67.63
2022-10-17T07:43:31.315Z,68.27
2022-10-17T07:44:31.319Z,68.83
2022-10-17T07:45:31.288Z,66.94
2022-10-17T07:46:31.279Z,67.00
2022-10-17T07:47:31.675Z,66.24
2022-10-17T07:48:31.256Z,66.67
2022-10-17T07:49:31.248Z,68.20
2022-10-17T07:50:31.257Z,68.20
2022-10-17T07:51:31.269Z,68.27
2022-10-17T07:52:31.568Z,68.60
2022-10-17T07:53:31.201Z,68.00
2022-10-17T07:54:31.188Z,68.60
2022-10-17T07:55:31.190Z,67.50
2022-10-17T07:56:31.188Z,67.86
2022-10-17T07:57:31.170Z,67.40
2022-10-17T07:58:31.150Z,67.90
2022-10-17T07:59:31.133Z,68.63
2022-10-17T08:00:31.320Z,68.96
2022-10-17T08:01:31.139Z,68.93
2022-10-17T08:02:31.349Z,68.86
2022-10-17T08:03:31.089Z,68.56
2022-10-17T08:04:31.090Z,69.09
2022-10-17T08:05:31.079Z,69.59
2022-10-17T08:06:31.060Z,69.66
2022-10-17T08:07:31.169Z,68.96
2022-10-17T08:08:31.033Z,68.73
2022-10-17T08:09:31.022Z,68.03
2022-10-17T08:10:31.013Z,68.07
2022-10-17T08:11:31.002Z,68.83
2022-10-17T08:12:31.182Z,68.70
2022-10-17T08:13:30.993Z,67.60
2022-10-17T08:14:30.972Z,67.83
2022-10-17T08:15:32.046Z,66.35
2022-10-17T08:16:30.943Z,66.97
2022-10-17T08:17:30.995Z,67.60
2022-10-17T08:18:30.945Z,67.73
2022-10-17T08:19:30.916Z,69.02
2022-10-17T08:20:30.904Z,69.13
2022-10-17T08:21:30.892Z,68.23
2022-10-17T08:22:31.422Z,68.93
2022-10-17T08:23:30.865Z,68.43
2022-10-17T08:24:30.906Z,68.86
2022-10-17T08:25:30.848Z,69.86
2022-10-17T08:26:30.843Z,70.06
2022-10-17T08:27:30.828Z,69.66
2022-10-17T08:28:30.878Z,70.36
2022-10-17T08:29:30.797Z,69.59
2022-10-17T08:30:30.822Z,70.65
2022-10-17T08:31:30.776Z,68.56
2022-10-17T08:32:31.019Z,69.36
2022-10-17T08:33:30.757Z,70.22
2022-10-17T08:34:30.747Z,69.62
2022-10-17T08:35:30.737Z,69.76
2022-10-17T08:36:30.756Z,70.59
2022-10-17T08:37:30.887Z,71.12
2022-10-17T08:38:34.682Z,71.48
2022-10-17T08:39:30.689Z,70.69
2022-10-17T08:40:30.688Z,70.62
2022-10-17T08:41:30.668Z,71.75
2022-10-17T08:42:30.689Z,73.35
2022-10-17T08:43:35.191Z,72.62
2022-10-17T08:44:30.640Z,72.22
2022-10-17T08:45:30.629Z,72.75
2022-10-17T08:46:30.619Z,72.22
2022-10-17T08:47:30.852Z,72.08
2022-10-17T08:48:30.621Z,71.78
2022-10-17T08:49:30.582Z,71.52
2022-10-17T08:50:30.580Z,71.82
2022-10-17T08:51:30.560Z,71.22
2022-10-17T08:52:30.561Z,71.39
2022-10-17T08:53:30.540Z,70.45
2022-10-17T08:54:30.551Z,69.56
2022-10-17T08:55:30.522Z,69.82
2022-10-17T08:56:44.585Z,68.93
2022-10-17T08:57:31.837Z,69.49
2022-10-17T08:58:30.482Z,68.13
2022-10-17T08:59:30.476Z,66.91
2022-10-17T09:00:30.482Z,66.31
2022-10-17T09:01:30.443Z,66.31
2022-10-17T09:02:30.459Z,66.41
2022-10-17T09:03:30.472Z,65.72
2022-10-17T09:04:32.976Z,65.52
2022-10-17T09:05:30.414Z,66.27
2022-10-17T09:06:30.423Z,67.27
2022-10-17T09:07:30.644Z,67.57
2022-10-17T09:08:30.373Z,68.00
2022-10-17T09:09:30.367Z,68.03
2022-10-17T09:10:30.355Z,66.97
2022-10-17T09:11:30.344Z,68.43
2022-10-17T09:12:30.783Z,68.53
2022-10-17T09:13:30.374Z,66.64
2022-10-17T09:14:30.315Z,66.94
2022-10-17T09:15:30.296Z,67.57
2022-10-17T09:16:30.306Z,67.66
2022-10-17T09:17:30.567Z,67.57
2022-10-17T09:18:30.296Z,68.30
2022-10-17T09:19:30.257Z,67.47
2022-10-17T09:20:30.246Z,67.66
2022-10-17T09:21:30.235Z,68.66
2022-10-17T09:22:30.226Z,68.46
2022-10-17T09:23:30.216Z,68.96
2022-10-17T09:24:30.227Z,67.57
2022-10-17T09:25:30.195Z,69.56
2022-10-17T09:26:30.217Z,68.37
2022-10-17T09:27:30.408Z,68.60
2022-10-17T09:28:30.198Z,69.53
2022-10-17T09:29:36.033Z,69.62
2022-10-17T09:30:44.634Z,70.23
2022-10-17T09:31:31.128Z,69.73
2022-10-17T09:32:30.406Z,69.29
2022-10-17T09:33:35.967Z,69.20
2022-10-17T09:34:31.163Z,69.09
2022-10-17T09:35:30.091Z,69.69
2022-10-17T09:36:30.089Z,69.43
2022-10-17T09:37:30.057Z,69.82
2022-10-17T09:38:30.050Z,70.53
2022-10-17T09:39:30.036Z,69.92
2022-10-17T09:40:30.027Z,69.66
2022-10-17T09:41:44.917Z,70.99
2022-10-17T09:42:31.461Z,72.39
2022-10-17T09:43:29.990Z,72.55
2022-10-17T09:44:29.980Z,70.86
2022-10-17T09:45:29.970Z,70.86
2022-10-17T09:46:29.962Z,71.06
2022-10-17T09:47:30.035Z,70.36
2022-10-17T09:48:29.960Z,70.26
2022-10-17T09:49:29.921Z,71.56
2022-10-17T09:50:29.911Z,70.95
2022-10-17T09:51:29.893Z,70.95
2022-10-17T09:52:30.293Z,71.32
2022-10-17T09:53:29.965Z,72.42
2022-10-17T09:54:29.871Z,70.32
2022-10-17T09:55:29.852Z,70.23
2022-10-17T09:56:29.843Z,71.56
2022-10-17T09:57:29.833Z,71.95
2022-10-17T09:58:36.894Z,71.32
2022-10-17T09:59:29.819Z,71.12
2022-10-17T10:00:29.849Z,70.32
2022-10-17T10:01:29.793Z,71.12
2022-10-17T10:02:29.941Z,71.12
2022-10-17T10:03:29.775Z,70.83
2022-10-17T10:04:30.451Z,71.39
2022-10-17T10:05:30.745Z,70.99
2022-10-17T10:06:29.738Z,70.39
2022-10-17T10:07:29.725Z,70.19
2022-10-17T10:08:29.714Z,70.65
2022-10-17T10:09:29.718Z,71.45
2022-10-17T10:10:29.700Z,71.86
2022-10-17T10:11:29.676Z,71.36
2022-10-17T10:12:29.975Z,71.22
2022-10-17T10:13:29.658Z,70.79
2022-10-17T10:14:29.652Z,70.29
2022-10-17T10:15:29.657Z,68.99
2022-10-17T10:16:29.630Z,68.60
2022-10-17T10:17:29.607Z,68.40
2022-10-17T10:19:29.587Z,68.49
2022-10-17T10:20:29.597Z,68.49
2022-10-17T10:21:29.572Z,68.79
2022-10-17T10:22:29.708Z,69.20
2022-10-17T10:23:29.553Z,68.90
2022-10-17T10:24:31.023Z,68.76
2022-10-17T10:25:29.518Z,68.60
2022-10-17T10:26:29.564Z,68.40
2022-10-17T10:27:29.545Z,68.43
2022-10-17T10:28:29.551Z,68.70
2022-10-17T10:29:29.485Z,68.10
2022-10-17T10:30:29.482Z,68.49
2022-10-17T10:31:29.463Z,69.23
2022-10-17T10:32:29.729Z,69.09
2022-10-17T10:33:29.430Z,68.90
2022-10-17T10:34:29.421Z,68.37
2022-10-17T10:35:29.431Z,67.96
2022-10-17T10:36:29.431Z,67.36
2022-10-17T10:37:29.611Z,67.86
2022-10-17T10:38:29.410Z,66.80
2022-10-17T10:39:29.371Z,67.00
2022-10-17T10:40:29.362Z,67.00
2022-10-17T10:41:29.350Z,66.77
2022-10-17T10:42:29.334Z,66.87
2022-10-17T10:43:29.322Z,67.27
2022-10-17T10:44:29.342Z,66.97
2022-10-17T10:45:47.498Z,67.07
2022-10-17T10:46:30.352Z,67.50
2022-10-17T10:47:29.405Z,67.90
2022-10-17T10:48:29.274Z,67.90
2022-10-17T10:49:29.252Z,67.90
2022-10-17T10:50:29.263Z,68.30
2022-10-17T10:51:29.237Z,68.33
2022-10-17T10:52:29.223Z,69.23
2022-10-17T10:53:34.105Z,68.63
2022-10-17T10:54:30.254Z,68.79
2022-10-17T10:55:29.189Z,68.79
2022-10-17T10:56:29.262Z,67.70
2022-10-17T10:57:29.560Z,68.70
2022-10-17T10:58:29.165Z,68.10
2022-10-17T10:59:29.142Z,68.19
2022-10-17T11:00:29.177Z,68.00
2022-10-17T11:01:29.167Z,68.00
2022-10-17T11:02:29.114Z,68.10
2022-10-17T11:03:29.104Z,68.10
2022-10-17T11:04:29.094Z,67.70
2022-10-17T11:05:29.078Z,68.73
2022-10-17T11:06:29.186Z,69.02
2022-10-17T11:07:29.283Z,68.90
2022-10-17T11:08:29.045Z,68.49
2022-10-17T11:09:31.421Z,68.70
2022-10-17T11:10:29.030Z,68.40
2022-10-17T11:11:29.007Z,68.56
2022-10-17T11:12:29.030Z,67.86
2022-10-17T11:13:28.993Z,67.73
2022-10-17T11:14:28.977Z,67.43
2022-10-17T11:15:28.965Z,68.13
2022-10-17T11:16:28.986Z,67.93
2022-10-17T11:17:29.174Z,67.50
2022-10-17T11:18:28.959Z,67.33
2022-10-17T11:19:28.919Z,67.33
2022-10-17T11:20:28.908Z,67.03
2022-10-17T11:21:29.006Z,66.94
2022-10-17T11:22:29.479Z,67.24
2022-10-17T11:23:28.868Z,67.33
2022-10-17T11:24:28.888Z,66.34
2022-10-17T11:25:28.849Z,67.24
2022-10-17T11:26:28.851Z,66.74
2022-10-17T11:27:28.828Z,66.83
2022-10-17T11:28:28.879Z,67.10
2022-10-17T11:29:28.808Z,66.20
2022-10-17T11:30:28.831Z,66.67
2022-10-17T11:31:28.781Z,66.38
2022-10-17T11:32:28.969Z,65.48
2022-10-17T11:33:28.760Z,65.48
2022-10-17T11:34:28.752Z,65.78
2022-10-17T11:35:28.740Z,65.15
2022-10-17T11:36:28.761Z,65.64
2022-10-17T11:37:28.714Z,65.35
2022-10-17T11:38:28.711Z,65.08
2022-10-17T11:39:28.693Z,66.31
2022-10-17T11:40:28.682Z,66.08
2022-10-17T11:41:28.670Z,65.58
2022-10-17T11:42:28.941Z,65.28
2022-10-17T11:43:28.694Z,65.61
2022-10-17T11:44:28.642Z,66.20
2022-10-17T11:45:28.622Z,66.04
2022-10-17T11:46:28.618Z,67.27
2022-10-17T11:47:28.624Z,66.41
2022-10-17T11:48:28.593Z,65.81
2022-10-17T11:49:28.583Z,65.68
2022-10-17T11:52:37.742Z,65.88
2022-10-17T11:53:29.545Z,64.85
2022-10-17T11:54:28.526Z,65.38
2022-10-17T11:55:28.513Z,65.35
2022-10-17T11:56:28.506Z,65.94
2022-10-17T11:57:28.484Z,66.14
2022-10-17T11:59:28.465Z,66.61
2022-10-17T12:00:28.466Z,67.03
2022-10-17T12:01:28.447Z,67.24
2022-10-17T12:02:28.609Z,67.60
2022-10-17T12:03:28.425Z,67.37
2022-10-17T12:04:28.514Z,66.87
2022-10-17T12:05:28.399Z,66.54
2022-10-17T12:06:29.502Z,66.05
2022-10-17T12:07:28.873Z,66.35
2022-10-17T12:08:30.573Z,65.35
2022-10-17T12:09:28.356Z,65.78
2022-10-17T12:10:28.367Z,65.98
2022-10-17T12:11:28.339Z,65.64
2022-10-17T12:12:28.761Z,65.55
2022-10-17T12:13:28.317Z,65.94
2022-10-17T12:14:28.297Z,65.94
2022-10-17T12:15:28.328Z,65.45
2022-10-17T12:16:28.323Z,65.78
2022-10-17T12:17:28.528Z,65.94
2022-10-17T12:18:28.258Z,65.75
2022-10-17T12:19:28.250Z,65.81
2022-10-17T12:20:28.236Z,65.12
2022-10-17T12:21:31.289Z,65.31
2022-10-17T12:22:28.208Z,64.79
2022-10-17T12:23:28.199Z,64.69
2022-10-17T12:24:28.655Z,64.29
2022-10-17T12:25:28.209Z,64.39
2022-10-17T12:26:28.167Z,64.49
2022-10-17T12:27:28.402Z,64.89
2022-10-17T12:28:28.181Z,64.98
2022-10-17T12:29:28.131Z,64.09
2022-10-17T12:30:28.131Z,63.70
2022-10-17T12:31:33.555Z,63.89
2022-10-17T12:32:36.860Z,64.49
2022-10-17T12:33:29.090Z,64.16
2022-10-17T12:34:28.074Z,64.26
2022-10-17T12:35:28.072Z,64.06
2022-10-17T12:36:28.058Z,64.39
2022-10-17T12:37:28.345Z,64.98
2022-10-17T12:38:28.071Z,64.49
2022-10-17T12:39:28.022Z,64.36
2022-10-17T12:40:28.012Z,63.76
2022-10-17T12:41:28.004Z,63.86
2022-10-17T12:42:28.208Z,63.76
2022-10-17T12:43:27.986Z,63.96
2022-10-17T12:44:28.730Z,64.13
2022-10-17T12:45:27.963Z,63.17
2022-10-17T12:46:27.944Z,63.86
2022-10-17T12:47:28.181Z,64.06
2022-10-17T12:48:27.924Z,63.86
2022-10-17T12:49:27.913Z,64.03
2022-10-17T12:50:27.925Z,64.03
2022-10-17T12:51:35.685Z,63.64
2022-10-17T12:52:28.911Z,63.86
2022-10-17T12:53:27.874Z,64.00
2022-10-17T12:54:27.855Z,64.76
2022-10-17T12:55:27.866Z,64.06
2022-10-17T12:56:27.856Z,64.13
2022-10-17T12:57:27.957Z,64.06
2022-10-17T12:58:27.815Z,64.43
2022-10-17T12:59:27.809Z,63.34